CFG4FA LSZH-EDDF
Flight info
| Callsign | CFG4FA |
|---|---|
| Flight time | 0h 42m |
| Altitude | 19000 |
| Route | DEGES Z1 SUDEN T164 KOVAN T163 SPESA SPESA4B |
| Aircraft | A320/M-SDE3FGHIRWY/LB1 |
Departure
| Time | 2026-05-05 20:27 |
|---|---|
| Airport | Zürich Airport (LSZH) |
Arrival
| Time | 2026-05-05 21:10 |
|---|---|
| Airport | Frankfurt Main Airport (EDDF) |
| Time | Latitude | Longitude | Altitude | Speed | Heading |
|---|---|---|---|---|---|
| 2026-05-05 19:27 | 47.45416 | 8.55871 | 1407 ft | 0 kts | 186° |
| 2026-05-05 20:14 | 47.45439 | 8.55875 | 1410 ft | 4 kts | 186° |
| 2026-05-05 20:14 | 47.45465 | 8.55880 | 1413 ft | 4 kts | 181° |
| 2026-05-05 20:15 | 47.45489 | 8.55871 | 1408 ft | 4 kts | 131° |
| 2026-05-05 20:15 | 47.45501 | 8.55837 | 1410 ft | 4 kts | 101° |
| 2026-05-05 20:15 | 47.45504 | 8.55809 | 1414 ft | 0 kts | 96° |
| 2026-05-05 20:20 | 47.45503 | 8.55815 | 1414 ft | 2 kts | 96° |
| 2026-05-05 20:20 | 47.45501 | 8.55847 | 1414 ft | 7 kts | 95° |
| 2026-05-05 20:21 | 47.45495 | 8.55935 | 1407 ft | 8 kts | 96° |
| 2026-05-05 20:21 | 47.45490 | 8.56015 | 1409 ft | 7 kts | 96° |
| 2026-05-05 20:21 | 47.45484 | 8.56084 | 1407 ft | 6 kts | 97° |
| 2026-05-05 20:21 | 47.45480 | 8.56194 | 1408 ft | 14 kts | 74° |
| 2026-05-05 20:22 | 47.45546 | 8.56250 | 1415 ft | 9 kts | 11° |
| 2026-05-05 20:22 | 47.45594 | 8.56260 | 1414 ft | 4 kts | 6° |
| 2026-05-05 20:22 | 47.45599 | 8.56261 | 1416 ft | 0 kts | 7° |
| 2026-05-05 20:24 | 47.45627 | 8.56265 | 1413 ft | 5 kts | 6° |
| 2026-05-05 20:24 | 47.45694 | 8.56276 | 1413 ft | 14 kts | 6° |
| 2026-05-05 20:24 | 47.45783 | 8.56290 | 1416 ft | 11 kts | 6° |
| 2026-05-05 20:25 | 47.45857 | 8.56301 | 1415 ft | 11 kts | 6° |
| 2026-05-05 20:25 | 47.45934 | 8.56312 | 1413 ft | 11 kts | 5° |
| 2026-05-05 20:25 | 47.46008 | 8.56324 | 1411 ft | 7 kts | 6° |
| 2026-05-05 20:25 | 47.46055 | 8.56332 | 1411 ft | 7 kts | 7° |
| 2026-05-05 20:26 | 47.46093 | 8.56364 | 1412 ft | 6 kts | 40° |
| 2026-05-05 20:26 | 47.46122 | 8.56401 | 1414 ft | 5 kts | 42° |
| 2026-05-05 20:26 | 47.46161 | 8.56404 | 1410 ft | 10 kts | 317° |
| 2026-05-05 20:26 | 47.46260 | 8.56267 | 1410 ft | 51 kts | 317° |
| 2026-05-05 20:27 | 47.46719 | 8.55642 | 1400 ft | 124 kts | 317° |
| 2026-05-05 20:27 | 47.47492 | 8.54584 | 1445 ft | 172 kts | 316° |
| 2026-05-05 20:27 | 47.48372 | 8.53404 | 2191 ft | 171 kts | 316° |
| 2026-05-05 20:27 | 47.49273 | 8.52235 | 3022 ft | 172 kts | 315° |
| 2026-05-05 20:28 | 47.50305 | 8.51315 | 3792 ft | 174 kts | 327° |
| 2026-05-05 20:28 | 47.51388 | 8.50511 | 4542 ft | 173 kts | 326° |
| 2026-05-05 20:28 | 47.52381 | 8.49483 | 5068 ft | 181 kts | 308° |
| 2026-05-05 20:28 | 47.53122 | 8.47966 | 5503 ft | 192 kts | 291° |
| 2026-05-05 20:29 | 47.53543 | 8.45989 | 5964 ft | 207 kts | 272° |
| 2026-05-05 20:29 | 47.53406 | 8.43900 | 6797 ft | 206 kts | 253° |
| 2026-05-05 20:29 | 47.52874 | 8.41920 | 7628 ft | 210 kts | 243° |
| 2026-05-05 20:29 | 47.52238 | 8.39988 | 8444 ft | 214 kts | 242° |
| 2026-05-05 20:30 | 47.51449 | 8.38079 | 9317 ft | 215 kts | 223° |
| 2026-05-05 20:30 | 47.50168 | 8.36982 | 10142 ft | 221 kts | 197° |
| 2026-05-05 20:30 | 47.48615 | 8.36878 | 10920 ft | 231 kts | 173° |
| 2026-05-05 20:30 | 47.47089 | 8.37832 | 11733 ft | 242 kts | 149° |
| 2026-05-05 20:31 | 47.46002 | 8.39823 | 12428 ft | 261 kts | 114° |
| 2026-05-05 20:31 | 47.45668 | 8.42492 | 13132 ft | 274 kts | 98° |
| 2026-05-05 20:31 | 47.45606 | 8.45344 | 13772 ft | 288 kts | 93° |
| 2026-05-05 20:31 | 47.45616 | 8.48432 | 14049 ft | 312 kts | 91° |
| 2026-05-05 20:32 | 47.45651 | 8.51742 | 14302 ft | 335 kts | 91° |
| 2026-05-05 20:32 | 47.45681 | 8.55321 | 14497 ft | 358 kts | 91° |
| 2026-05-05 20:32 | 47.45771 | 8.59105 | 14649 ft | 382 kts | 89° |
| 2026-05-05 20:32 | 47.45922 | 8.63110 | 14945 ft | 398 kts | 88° |
| 2026-05-05 20:33 | 47.46106 | 8.67257 | 15558 ft | 404 kts | 88° |
| 2026-05-05 20:33 | 47.46293 | 8.71392 | 16250 ft | 407 kts | 88° |
| 2026-05-05 20:33 | 47.46475 | 8.75606 | 16950 ft | 410 kts | 88° |
| 2026-05-05 20:33 | 47.46629 | 8.79827 | 17643 ft | 412 kts | 90° |
| 2026-05-05 20:34 | 47.46864 | 8.84049 | 18316 ft | 419 kts | 78° |
| 2026-05-05 20:34 | 47.48013 | 8.88026 | 18749 ft | 425 kts | 57° |
| 2026-05-05 20:34 | 47.49912 | 8.91433 | 19166 ft | 429 kts | 49° |
| 2026-05-05 20:34 | 47.51869 | 8.94760 | 19740 ft | 431 kts | 50° |
| 2026-05-05 20:35 | 47.53799 | 8.98174 | 20008 ft | 433 kts | 51° |
| 2026-05-05 20:35 | 47.55690 | 9.01620 | 20253 ft | 434 kts | 52° |
| 2026-05-05 20:35 | 47.57590 | 9.05132 | 20506 ft | 436 kts | 52° |
| 2026-05-05 20:35 | 47.59488 | 9.08656 | 20761 ft | 438 kts | 52° |
| 2026-05-05 20:36 | 47.61401 | 9.12193 | 20883 ft | 443 kts | 52° |
| 2026-05-05 20:36 | 47.63367 | 9.15805 | 20910 ft | 458 kts | 52° |
| 2026-05-05 20:36 | 47.65398 | 9.19527 | 20910 ft | 469 kts | 51° |
| 2026-05-05 20:36 | 47.67471 | 9.23307 | 20910 ft | 473 kts | 51° |
| 2026-05-05 20:37 | 47.69551 | 9.27100 | 20914 ft | 473 kts | 51° |
| 2026-05-05 20:37 | 47.70925 | 9.29612 | 20912 ft | 473 kts | 51° |
| 2026-05-05 20:37 | 47.73687 | 9.34684 | 20917 ft | 474 kts | 52° |
| 2026-05-05 20:37 | 47.75874 | 9.38360 | 20916 ft | 474 kts | 44° |
| 2026-05-05 20:38 | 47.78426 | 9.41421 | 20919 ft | 474 kts | 33° |
| 2026-05-05 20:38 | 47.81313 | 9.43809 | 20913 ft | 473 kts | 23° |
| 2026-05-05 20:38 | 47.84413 | 9.45412 | 20911 ft | 471 kts | 13° |
| 2026-05-05 20:38 | 47.87638 | 9.46184 | 20909 ft | 469 kts | 2° |
| 2026-05-05 20:39 | 47.89799 | 9.46259 | 20912 ft | 468 kts | 358° |
| 2026-05-05 20:39 | 47.93054 | 9.46245 | 20906 ft | 468 kts | 358° |
| 2026-05-05 20:39 | 47.96304 | 9.46235 | 20901 ft | 468 kts | 358° |
| 2026-05-05 20:39 | 47.99563 | 9.46229 | 20897 ft | 468 kts | 358° |
| 2026-05-05 20:40 | 48.02820 | 9.46227 | 20894 ft | 468 kts | 358° |
| 2026-05-05 20:40 | 48.06081 | 9.46220 | 20893 ft | 468 kts | 358° |
| 2026-05-05 20:40 | 48.09335 | 9.46213 | 20892 ft | 468 kts | 358° |
| 2026-05-05 20:40 | 48.12583 | 9.46206 | 20892 ft | 468 kts | 358° |
| 2026-05-05 20:41 | 48.15847 | 9.46198 | 20891 ft | 468 kts | 358° |
| 2026-05-05 20:41 | 48.19091 | 9.46190 | 20892 ft | 467 kts | 358° |
| 2026-05-05 20:41 | 48.22339 | 9.46189 | 20890 ft | 467 kts | 359° |
| 2026-05-05 20:41 | 48.25601 | 9.46197 | 20890 ft | 467 kts | 359° |
| 2026-05-05 20:42 | 48.28850 | 9.46207 | 20890 ft | 467 kts | 359° |
| 2026-05-05 20:42 | 48.32107 | 9.46214 | 20883 ft | 467 kts | 359° |
| 2026-05-05 20:42 | 48.35351 | 9.46217 | 20884 ft | 467 kts | 359° |
| 2026-05-05 20:42 | 48.38604 | 9.46218 | 20882 ft | 467 kts | 359° |
| 2026-05-05 20:43 | 48.41852 | 9.46217 | 20879 ft | 467 kts | 359° |
| 2026-05-05 20:43 | 48.45086 | 9.46115 | 20874 ft | 466 kts | 353° |
| 2026-05-05 20:43 | 48.48272 | 9.45228 | 20872 ft | 463 kts | 342° |
| 2026-05-05 20:43 | 48.51230 | 9.43507 | 20879 ft | 461 kts | 332° |
| 2026-05-05 20:44 | 48.53980 | 9.40974 | 20876 ft | 458 kts | 321° |
| 2026-05-05 20:44 | 48.56358 | 9.37767 | 20877 ft | 455 kts | 311° |
| 2026-05-05 20:44 | 48.58288 | 9.34041 | 20876 ft | 452 kts | 302° |
| 2026-05-05 20:44 | 48.60130 | 9.30246 | 20873 ft | 454 kts | 309° |
| 2026-05-05 20:45 | 48.64987 | 9.24108 | 20871 ft | 459 kts | 328° |
| 2026-05-05 20:45 | 48.67855 | 9.21970 | 20874 ft | 461 kts | 335° |
| 2026-05-05 20:45 | 48.70805 | 9.20033 | 20874 ft | 461 kts | 335° |
| 2026-05-05 20:46 | 48.73739 | 9.18095 | 20872 ft | 461 kts | 335° |
| 2026-05-05 20:46 | 48.76664 | 9.16154 | 20872 ft | 461 kts | 335° |
| 2026-05-05 20:46 | 48.79611 | 9.14193 | 20870 ft | 461 kts | 335° |
| 2026-05-05 20:46 | 48.82551 | 9.12234 | 20870 ft | 461 kts | 335° |
| 2026-05-05 20:47 | 48.85539 | 9.10461 | 20862 ft | 462 kts | 341° |
| 2026-05-05 20:47 | 48.88667 | 9.09383 | 20860 ft | 464 kts | 351° |
| 2026-05-05 20:47 | 48.91906 | 9.09060 | 20857 ft | 465 kts | 0° |
| 2026-05-05 20:47 | 48.95118 | 9.09417 | 20853 ft | 465 kts | 5° |
| 2026-05-05 20:48 | 48.98345 | 9.09885 | 20850 ft | 465 kts | 5° |
| 2026-05-05 20:48 | 49.01573 | 9.10348 | 20847 ft | 465 kts | 5° |
| 2026-05-05 20:48 | 49.04795 | 9.10805 | 20843 ft | 465 kts | 5° |
| 2026-05-05 20:48 | 49.08031 | 9.11260 | 20848 ft | 465 kts | 5° |
| 2026-05-05 20:49 | 49.11246 | 9.11713 | 20848 ft | 465 kts | 5° |
| 2026-05-05 20:49 | 49.14480 | 9.12173 | 20844 ft | 465 kts | 5° |
| 2026-05-05 20:49 | 49.17712 | 9.12637 | 20847 ft | 465 kts | 5° |
| 2026-05-05 20:49 | 49.20928 | 9.13101 | 20848 ft | 465 kts | 5° |
| 2026-05-05 20:50 | 49.24154 | 9.13565 | 20845 ft | 465 kts | 5° |
| 2026-05-05 20:50 | 49.27382 | 9.14027 | 20843 ft | 465 kts | 5° |
| 2026-05-05 20:50 | 49.30609 | 9.14486 | 20846 ft | 465 kts | 5° |
| 2026-05-05 20:50 | 49.33831 | 9.14944 | 20383 ft | 463 kts | 5° |
| 2026-05-05 20:51 | 49.37026 | 9.15397 | 19806 ft | 459 kts | 5° |
| 2026-05-05 20:51 | 49.40187 | 9.15848 | 19244 ft | 455 kts | 5° |
| 2026-05-05 20:51 | 49.43323 | 9.16300 | 18693 ft | 451 kts | 5° |
| 2026-05-05 20:51 | 49.46449 | 9.16750 | 18148 ft | 448 kts | 4° |
| 2026-05-05 20:52 | 49.49536 | 9.17194 | 17534 ft | 444 kts | 4° |
| 2026-05-05 20:52 | 49.52592 | 9.17633 | 16929 ft | 441 kts | 4° |
| 2026-05-05 20:52 | 49.55635 | 9.18071 | 16330 ft | 437 kts | 4° |
| 2026-05-05 20:52 | 49.58650 | 9.18506 | 15747 ft | 433 kts | 4° |
| 2026-05-05 20:53 | 49.61631 | 9.19054 | 15177 ft | 430 kts | 9° |
| 2026-05-05 20:53 | 49.64489 | 9.20334 | 14610 ft | 428 kts | 21° |
| 2026-05-05 20:53 | 49.67131 | 9.22409 | 14057 ft | 426 kts | 32° |
| 2026-05-05 20:53 | 49.69472 | 9.25190 | 13491 ft | 423 kts | 41° |
| 2026-05-05 20:54 | 49.71789 | 9.27927 | 12883 ft | 418 kts | 27° |
| 2026-05-05 20:54 | 49.74502 | 9.29379 | 12388 ft | 412 kts | 7° |
| 2026-05-05 20:54 | 49.77315 | 9.29655 | 12006 ft | 398 kts | 359° |
| 2026-05-05 20:54 | 49.80044 | 9.29745 | 11621 ft | 385 kts | 359° |
| 2026-05-05 20:55 | 49.82676 | 9.29832 | 11245 ft | 374 kts | 359° |
| 2026-05-05 20:55 | 49.85231 | 9.29922 | 10970 ft | 361 kts | 359° |
| 2026-05-05 20:55 | 49.87698 | 9.30018 | 10811 ft | 346 kts | 359° |
| 2026-05-05 20:55 | 49.90071 | 9.30113 | 10821 ft | 340 kts | 359° |
| 2026-05-05 20:56 | 49.92433 | 9.30208 | 10804 ft | 338 kts | 359° |
| 2026-05-05 20:56 | 49.94772 | 9.30304 | 10368 ft | 335 kts | 359° |
| 2026-05-05 20:56 | 49.97101 | 9.30382 | 9886 ft | 333 kts | 356° |
| 2026-05-05 20:56 | 49.99353 | 9.29873 | 9418 ft | 327 kts | 345° |
| 2026-05-05 20:57 | 50.01569 | 9.29108 | 8908 ft | 324 kts | 344° |
| 2026-05-05 20:57 | 50.03764 | 9.28327 | 8600 ft | 323 kts | 344° |
| 2026-05-05 20:57 | 50.05945 | 9.27545 | 8316 ft | 321 kts | 344° |
| 2026-05-05 20:57 | 50.08108 | 9.26773 | 7848 ft | 317 kts | 344° |
| 2026-05-05 20:58 | 50.10248 | 9.26003 | 7381 ft | 315 kts | 344° |
| 2026-05-05 20:58 | 50.12377 | 9.25233 | 6912 ft | 312 kts | 344° |
| 2026-05-05 20:58 | 50.14477 | 9.24470 | 6452 ft | 310 kts | 344° |
| 2026-05-05 20:58 | 50.16536 | 9.23722 | 6259 ft | 295 kts | 344° |
| 2026-05-05 20:59 | 50.18457 | 9.23028 | 6126 ft | 268 kts | 342° |
| 2026-05-05 20:59 | 50.20069 | 9.21936 | 5999 ft | 240 kts | 321° |
| 2026-05-05 20:59 | 50.21200 | 9.20254 | 5819 ft | 220 kts | 302° |
| 2026-05-05 20:59 | 50.21872 | 9.18175 | 5564 ft | 212 kts | 284° |
| 2026-05-05 21:00 | 50.22077 | 9.15946 | 5306 ft | 207 kts | 266° |
| 2026-05-05 21:00 | 50.21836 | 9.13766 | 5076 ft | 202 kts | 250° |
| 2026-05-05 21:00 | 50.21282 | 9.11757 | 4988 ft | 201 kts | 246° |
| 2026-05-05 21:00 | 50.20714 | 9.09755 | 4986 ft | 202 kts | 246° |
| 2026-05-05 21:01 | 50.20145 | 9.07745 | 4986 ft | 203 kts | 246° |
| 2026-05-05 21:01 | 50.19578 | 9.05732 | 4988 ft | 203 kts | 246° |
| 2026-05-05 21:01 | 50.18926 | 9.03782 | 4996 ft | 203 kts | 235° |
| 2026-05-05 21:01 | 50.17972 | 9.02164 | 4987 ft | 204 kts | 220° |
| 2026-05-05 21:02 | 50.16758 | 9.00993 | 4855 ft | 206 kts | 205° |
| 2026-05-05 21:02 | 50.15387 | 9.00384 | 4704 ft | 207 kts | 193° |
| 2026-05-05 21:02 | 50.13959 | 8.99969 | 4556 ft | 207 kts | 193° |
| 2026-05-05 21:02 | 50.12555 | 8.99552 | 4402 ft | 206 kts | 193° |
| 2026-05-05 21:03 | 50.11142 | 8.99129 | 4249 ft | 206 kts | 193° |
| 2026-05-05 21:03 | 50.09780 | 8.98590 | 4113 ft | 196 kts | 206° |
| 2026-05-05 21:03 | 50.08677 | 8.97416 | 3986 ft | 191 kts | 227° |
| 2026-05-05 21:03 | 50.07942 | 8.95717 | 3862 ft | 190 kts | 248° |
| 2026-05-05 21:04 | 50.07521 | 8.93776 | 3706 ft | 186 kts | 251° |
| 2026-05-05 21:04 | 50.07121 | 8.91897 | 3561 ft | 178 kts | 251° |
| 2026-05-05 21:04 | 50.06737 | 8.90109 | 3445 ft | 171 kts | 251° |
| 2026-05-05 21:04 | 50.06362 | 8.88367 | 3289 ft | 169 kts | 251° |
| 2026-05-05 21:05 | 50.06096 | 8.86587 | 3138 ft | 169 kts | 266° |
| 2026-05-05 21:05 | 50.06172 | 8.84751 | 2981 ft | 169 kts | 273° |
| 2026-05-05 21:05 | 50.06269 | 8.82932 | 2829 ft | 170 kts | 272° |
| 2026-05-05 21:05 | 50.06362 | 8.81099 | 2676 ft | 169 kts | 272° |
| 2026-05-05 21:06 | 50.06457 | 8.79275 | 2525 ft | 169 kts | 273° |
| 2026-05-05 21:06 | 50.06560 | 8.77450 | 2376 ft | 169 kts | 274° |
| 2026-05-05 21:06 | 50.06671 | 8.75663 | 2216 ft | 169 kts | 274° |
| 2026-05-05 21:06 | 50.06786 | 8.73807 | 2033 ft | 171 kts | 273° |
| 2026-05-05 21:07 | 50.06899 | 8.71966 | 1825 ft | 167 kts | 272° |
| 2026-05-05 21:07 | 50.06916 | 8.70272 | 1621 ft | 152 kts | 264° |
| 2026-05-05 21:07 | 50.06795 | 8.68708 | 1417 ft | 140 kts | 257° |
| 2026-05-05 21:07 | 50.06567 | 8.67320 | 1300 ft | 130 kts | 249° |
| 2026-05-05 21:08 | 50.06246 | 8.65984 | 1172 ft | 134 kts | 247° |
| 2026-05-05 21:08 | 50.05914 | 8.64620 | 1084 ft | 136 kts | 249° |
| 2026-05-05 21:08 | 50.05591 | 8.63239 | 962 ft | 136 kts | 248° |
| 2026-05-05 21:08 | 50.05263 | 8.61873 | 821 ft | 134 kts | 249° |
| 2026-05-05 21:09 | 50.04938 | 8.60514 | 663 ft | 134 kts | 249° |
| 2026-05-05 21:09 | 50.04623 | 8.59152 | 485 ft | 134 kts | 248° |
| 2026-05-05 21:09 | 50.04305 | 8.57811 | 365 ft | 124 kts | 248° |
| 2026-05-05 21:09 | 50.04052 | 8.56773 | 364 ft | 79 kts | 249° |
| 2026-05-05 21:10 | 50.03916 | 8.56190 | 354 ft | 45 kts | 250° |
| 2026-05-05 21:10 | 50.03893 | 8.55796 | 354 ft | 19 kts | 277° |
| 2026-05-05 21:10 | 50.03916 | 8.55645 | 350 ft | 9 kts | 308° |
| 2026-05-05 21:10 | 50.03965 | 8.55640 | 353 ft | 7 kts | 31° |
| 2026-05-05 21:11 | 50.03995 | 8.55732 | 353 ft | 14 kts | 70° |
| 2026-05-05 21:11 | 50.04036 | 8.55899 | 352 ft | 18 kts | 69° |
| 2026-05-05 21:11 | 50.04082 | 8.56098 | 359 ft | 21 kts | 69° |
| 2026-05-05 21:11 | 50.04138 | 8.56325 | 353 ft | 24 kts | 70° |
| 2026-05-05 21:12 | 50.04197 | 8.56573 | 359 ft | 25 kts | 70° |
| 2026-05-05 21:12 | 50.04260 | 8.56837 | 362 ft | 26 kts | 69° |
| 2026-05-05 21:12 | 50.04327 | 8.57118 | 363 ft | 28 kts | 70° |
| 2026-05-05 21:12 | 50.04395 | 8.57405 | 361 ft | 29 kts | 68° |
| 2026-05-05 21:13 | 50.04464 | 8.57693 | 366 ft | 27 kts | 70° |
| 2026-05-05 21:13 | 50.04532 | 8.57977 | 367 ft | 29 kts | 70° |
| 2026-05-05 21:13 | 50.04596 | 8.58243 | 368 ft | 25 kts | 69° |
| 2026-05-05 21:13 | 50.04657 | 8.58497 | 369 ft | 26 kts | 70° |
| 2026-05-05 21:14 | 50.04714 | 8.58728 | 369 ft | 19 kts | 67° |
| 2026-05-05 21:14 | 50.04747 | 8.58854 | 369 ft | 10 kts | 71° |
| 2026-05-05 21:14 | 50.04769 | 8.58947 | 369 ft | 9 kts | 68° |
| 2026-05-05 21:14 | 50.04803 | 8.59012 | 371 ft | 8 kts | 13° |
| 2026-05-05 21:15 | 50.04842 | 8.58992 | 367 ft | 4 kts | 339° |
| 2026-05-05 21:15 | 50.04863 | 8.58980 | 368 ft | 2 kts | 339° |
| 2026-05-05 21:15 | 50.04869 | 8.58976 | 366 ft | 0 kts | 340° |